createdAt,value
2023-04-10T00:02:04.190Z,66.36
2023-04-10T00:04:32.923Z,67.81
2023-04-10T00:07:00.823Z,68.90
2023-04-10T00:09:29.965Z,67.47
2023-04-10T00:11:58.220Z,67.52
2023-04-10T00:14:26.178Z,75.50
2023-04-10T00:16:54.143Z,77.45
2023-04-10T00:19:22.465Z,74.97
2023-04-10T00:21:50.220Z,70.18
2023-04-10T00:24:18.249Z,69.38
2023-04-10T00:26:46.503Z,75.48
2023-04-10T00:29:14.500Z,79.82
2023-04-10T00:31:42.460Z,81.47
2023-04-10T00:34:10.792Z,71.98
2023-04-10T00:36:38.563Z,67.08
2023-04-10T00:39:07.746Z,65.87
2023-04-10T00:41:35.857Z,66.60
2023-04-10T00:44:03.897Z,67.15
2023-04-10T00:46:32.440Z,67.53
2023-04-10T00:49:03.325Z,66.46
2023-04-10T00:51:31.707Z,65.48
2023-04-10T00:54:01.621Z,64.79
2023-04-10T00:56:32.342Z,65.18
2023-04-10T00:59:00.521Z,64.96
2023-04-10T01:01:28.359Z,64.61
2023-04-10T01:03:58.183Z,64.31
2023-04-10T01:07:11.803Z,66.83
2023-04-10T01:09:53.977Z,72.32
2023-04-10T01:12:34.025Z,76.50
2023-04-10T01:15:04.703Z,76.67
2023-04-10T01:17:58.558Z,77.60
2023-04-10T01:20:31.010Z,77.54
2023-04-10T01:23:29.826Z,79.11
2023-04-10T01:26:04.778Z,73.28
2023-04-10T01:28:57.587Z,68.48
2023-04-10T01:32:02.016Z,66.73
2023-04-10T01:34:51.501Z,66.81
2023-04-10T01:37:34.974Z,66.59
2023-04-10T01:40:07.374Z,68.09
2023-04-10T01:42:54.934Z,67.69
2023-04-10T01:45:29.378Z,68.58
2023-04-10T01:47:58.126Z,69.44
2023-04-10T01:50:28.952Z,72.61
2023-04-10T01:52:59.471Z,73.99
2023-04-10T01:55:28.316Z,69.66
2023-04-10T01:57:57.081Z,66.99
2023-04-10T02:00:25.701Z,65.98
2023-04-10T02:02:54.368Z,65.74
2023-04-10T02:05:25.918Z,65.69
2023-04-10T02:08:13.179Z,65.47
2023-04-10T02:11:03.756Z,68.78
2023-04-10T02:13:36.144Z,75.61
2023-04-10T02:16:07.709Z,79.24
2023-04-10T02:18:38.420Z,80.80
2023-04-10T02:21:07.725Z,81.52
2023-04-10T02:23:37.014Z,82.27
2023-04-10T02:26:09.614Z,82.53
2023-04-10T02:28:40.677Z,83.12
2023-04-10T02:31:08.695Z,83.56
2023-04-10T02:33:36.987Z,83.55
2023-04-10T02:36:05.580Z,83.62
2023-04-10T02:38:33.496Z,83.40
2023-04-10T02:41:01.430Z,83.02
2023-04-10T02:43:30.079Z,83.69
2023-04-10T02:45:58.046Z,83.22
2023-04-10T02:48:26.135Z,83.24
2023-04-10T02:50:59.164Z,83.62
2023-04-10T02:53:27.819Z,83.49
2023-04-10T02:55:56.679Z,83.05
2023-04-10T02:58:24.761Z,82.75
2023-04-10T03:00:54.111Z,82.82
2023-04-10T03:03:22.994Z,82.64
2023-04-10T03:05:51.414Z,82.49
2023-04-10T03:08:19.946Z,83.01
2023-04-10T03:10:51.392Z,82.55
2023-04-10T03:13:19.312Z,82.23
2023-04-10T03:15:47.409Z,81.99
2023-04-10T03:18:15.832Z,81.55
2023-04-10T03:20:45.127Z,81.10
2023-04-10T03:23:13.265Z,81.37
2023-04-10T03:25:41.753Z,81.22
2023-04-10T03:28:09.942Z,82.17
2023-04-10T03:30:38.225Z,81.96
2023-04-10T03:33:06.591Z,81.46
2023-04-10T03:35:34.442Z,81.52
2023-04-10T03:38:03.188Z,81.86
2023-04-10T03:40:31.728Z,81.86
2023-04-10T03:42:59.599Z,81.45
2023-04-10T03:45:29.184Z,81.22
2023-04-10T03:47:57.434Z,80.20
2023-04-10T03:50:25.923Z,80.14
2023-04-10T03:52:54.287Z,77.74
2023-04-10T03:55:22.767Z,79.90
2023-04-10T03:57:50.885Z,80.11
2023-04-10T04:00:20.925Z,79.46
2023-04-10T04:02:51.191Z,79.61
2023-04-10T04:05:20.455Z,79.74
2023-04-10T04:07:49.106Z,79.90
2023-04-10T04:10:17.938Z,79.66
2023-04-10T04:12:47.701Z,79.68
2023-04-10T04:15:16.373Z,79.42
2023-04-10T04:17:46.528Z,78.80
2023-04-10T04:20:17.096Z,78.60
2023-04-10T04:22:45.143Z,78.70
2023-04-10T04:25:13.117Z,78.50
2023-04-10T04:27:43.130Z,78.15
2023-04-10T04:30:11.985Z,77.94
2023-04-10T04:32:43.407Z,77.47
2023-04-10T04:35:11.701Z,76.73
2023-04-10T04:37:44.102Z,75.95
2023-04-10T04:40:15.072Z,73.12
2023-04-10T04:42:45.042Z,73.58
2023-04-10T04:45:14.572Z,74.15
2023-04-10T04:47:42.725Z,74.09
2023-04-10T04:50:11.600Z,73.00
2023-04-10T04:52:41.198Z,72.84
2023-04-10T04:55:10.537Z,73.25
2023-04-10T04:57:40.674Z,73.70
2023-04-10T05:00:10.230Z,73.45
2023-04-10T05:02:39.427Z,73.07
2023-04-10T05:05:08.067Z,65.69
2023-04-10T05:07:39.886Z,60.95
2023-04-10T05:10:09.234Z,59.50
2023-04-10T05:12:37.632Z,59.81
2023-04-10T05:15:06.826Z,58.98
2023-04-10T05:17:35.841Z,57.79
2023-04-10T05:20:05.170Z,57.65
2023-04-10T05:22:36.792Z,57.07
2023-04-10T05:25:06.565Z,57.13
2023-04-10T05:27:35.648Z,57.00
2023-04-10T05:30:04.324Z,56.70
2023-04-10T05:32:36.222Z,56.43
2023-04-10T05:35:04.848Z,55.99
2023-04-10T05:37:33.432Z,55.47
2023-04-10T05:40:01.451Z,54.64
2023-04-10T05:42:31.397Z,54.01
2023-04-10T05:44:59.934Z,53.61
2023-04-10T05:47:28.156Z,53.67
2023-04-10T05:49:56.609Z,53.30
2023-04-10T05:52:25.640Z,52.71
2023-04-10T05:54:54.969Z,53.04
2023-04-10T05:57:25.927Z,53.83
2023-04-10T05:59:54.467Z,52.83
2023-04-10T06:02:22.662Z,52.58
2023-04-10T06:04:52.020Z,51.56
2023-04-10T06:07:20.214Z,52.29
2023-04-10T06:09:48.007Z,49.17
2023-04-10T06:12:19.271Z,52.46
2023-04-10T06:14:52.544Z,51.15
2023-04-10T06:17:26.125Z,51.23
2023-04-10T06:19:54.105Z,51.38
2023-04-10T06:22:22.220Z,52.87
2023-04-10T06:24:51.346Z,51.38
2023-04-10T06:27:19.402Z,46.74
2023-04-10T06:29:47.739Z,50.36
2023-04-10T06:32:16.959Z,44.93
2023-04-10T06:34:46.674Z,47.35
2023-04-10T06:37:14.918Z,47.49
2023-04-10T06:39:42.803Z,51.66
2023-04-10T06:42:10.792Z,50.30
2023-04-10T06:44:40.980Z,50.48
2023-04-10T06:47:09.482Z,47.18
2023-04-10T06:49:37.301Z,46.46
2023-04-10T06:52:05.803Z,46.49
2023-04-10T06:54:33.587Z,44.21
2023-04-10T06:57:01.388Z,45.37
2023-04-10T06:59:29.638Z,45.46
2023-04-10T07:01:57.452Z,45.31
2023-04-10T07:04:25.310Z,40.07
2023-04-10T07:06:53.551Z,46.13
2023-04-10T07:09:21.617Z,45.68
2023-04-10T07:11:49.580Z,45.84
2023-04-10T07:14:17.680Z,44.88
2023-04-10T07:16:45.693Z,43.14
2023-04-10T07:19:13.593Z,43.04
2023-04-10T07:21:42.638Z,43.47
2023-04-10T07:24:10.822Z,39.78
2023-04-10T07:26:38.530Z,42.66
2023-04-10T07:29:06.792Z,41.78
2023-04-10T07:31:34.656Z,39.62
2023-04-10T07:34:03.480Z,41.25
2023-04-10T07:36:32.289Z,42.73
2023-04-10T07:39:00.305Z,40.41
2023-04-10T07:41:28.271Z,34.81
2023-04-10T07:43:56.541Z,43.38
2023-04-10T07:46:24.320Z,39.92
2023-04-10T07:48:52.438Z,38.75
2023-04-10T07:51:21.019Z,39.60
2023-04-10T07:53:48.788Z,34.02
2023-04-10T07:56:21.273Z,36.14
2023-04-10T07:58:50.033Z,43.62
2023-04-10T08:01:17.721Z,39.44
2023-04-10T08:03:47.987Z,40.05
2023-04-10T08:06:15.973Z,30.83
2023-04-10T08:08:43.894Z,35.93
2023-04-10T08:11:28.095Z,46.21
2023-04-10T08:13:58.452Z,32.24
2023-04-10T08:16:28.360Z,43.53
2023-04-10T08:18:57.989Z,42.69
2023-04-10T08:21:27.659Z,41.48
2023-04-10T08:23:57.116Z,42.14
2023-04-10T08:26:26.591Z,39.69
2023-04-10T08:28:57.565Z,36.57
2023-04-10T08:31:27.725Z,38.21
2023-04-10T08:33:56.972Z,37.61
2023-04-10T08:36:25.216Z,37.61
2023-04-10T08:38:53.003Z,37.79
2023-04-10T08:41:21.611Z,35.19
2023-04-10T08:43:50.384Z,40.71
2023-04-10T08:46:18.316Z,37.06
2023-04-10T08:48:56.778Z,34.55
2023-04-10T08:51:32.606Z,26.04
2023-04-10T08:54:12.178Z,37.50
2023-04-10T08:56:43.216Z,27.23
2023-04-10T08:59:11.585Z,35.98
2023-04-10T09:01:40.913Z,28.88
2023-04-10T09:04:11.223Z,36.86
2023-04-10T09:06:39.913Z,26.34
2023-04-10T09:09:07.923Z,34.41
2023-04-10T09:11:56.679Z,35.59
2023-04-10T09:14:26.626Z,27.28
2023-04-10T09:16:57.063Z,25.08
2023-04-10T09:19:34.738Z,24.72
2023-04-10T09:22:02.799Z,28.00
2023-04-10T09:24:31.317Z,32.25
2023-04-10T09:26:59.120Z,35.51
2023-04-10T09:29:38.401Z,31.53
2023-04-10T09:32:06.654Z,26.48
2023-04-10T09:34:34.363Z,27.88
2023-04-10T09:37:02.482Z,34.31
2023-04-10T09:39:43.500Z,29.53
2023-04-10T09:42:15.809Z,39.25
2023-04-10T09:44:44.153Z,36.82
2023-04-10T09:47:17.378Z,25.84
2023-04-10T09:49:53.819Z,28.31
2023-04-10T09:52:38.666Z,29.29
2023-04-10T09:55:10.950Z,28.28
2023-04-10T09:57:38.735Z,34.46
2023-04-10T10:00:07.470Z,29.47
2023-04-10T10:02:39.338Z,33.22
2023-04-10T10:05:08.214Z,28.96
2023-04-10T10:07:37.048Z,40.35
2023-04-10T10:10:09.290Z,27.00
2023-04-10T10:12:50.763Z,26.99
2023-04-10T10:15:27.414Z,28.08
2023-04-10T10:17:58.586Z,36.02
2023-04-10T10:20:27.428Z,25.02
2023-04-10T10:22:57.433Z,34.53
2023-04-10T10:25:26.833Z,24.43
2023-04-10T10:27:56.476Z,23.98
2023-04-10T10:30:30.159Z,25.01
2023-04-10T10:33:07.846Z,24.30
2023-04-10T10:35:37.215Z,37.55
2023-04-10T10:38:06.671Z,22.33
2023-04-10T10:41:02.565Z,23.44
2023-04-10T10:43:53.501Z,23.40
2023-04-10T10:46:44.376Z,23.91
2023-04-10T10:49:12.552Z,26.14
2023-04-10T10:51:51.701Z,39.38
2023-04-10T10:54:33.461Z,27.26
2023-04-10T10:57:03.406Z,30.68
2023-04-10T11:00:00.960Z,24.48
2023-04-10T11:02:31.245Z,28.14
2023-04-10T11:04:59.557Z,35.78
2023-04-10T11:07:58.961Z,24.45
2023-04-10T11:11:07.616Z,26.69
2023-04-10T11:13:37.400Z,24.47
2023-04-10T11:16:07.872Z,23.78
2023-04-10T11:18:56.076Z,24.73
2023-04-10T11:21:35.930Z,26.12
2023-04-10T11:24:04.913Z,26.62
2023-04-10T11:26:41.831Z,28.52
2023-04-10T11:29:28.303Z,25.94
2023-04-10T11:31:57.569Z,28.08
2023-04-10T11:34:27.830Z,26.44
2023-04-10T11:36:56.078Z,27.59
2023-04-10T11:39:23.921Z,28.32
2023-04-10T11:41:53.704Z,27.98
2023-04-10T11:44:35.556Z,28.79
2023-04-10T11:47:03.899Z,44.20
2023-04-10T11:49:34.940Z,39.15
2023-04-10T11:52:03.754Z,29.43
2023-04-10T11:54:32.875Z,29.42
2023-04-10T11:57:10.131Z,29.86
2023-04-10T11:59:38.422Z,39.50
2023-04-10T12:02:16.242Z,31.65
2023-04-10T12:04:45.058Z,32.86
2023-04-10T12:07:13.053Z,34.40
2023-04-10T12:09:41.302Z,43.56
2023-04-10T12:12:09.697Z,35.19
2023-04-10T12:14:40.603Z,37.15
2023-04-10T12:17:11.884Z,39.13
2023-04-10T12:19:41.004Z,40.70
2023-04-10T12:22:12.312Z,41.86
2023-04-10T12:24:53.915Z,41.40
2023-04-10T12:27:27.956Z,42.17
2023-04-10T12:29:58.537Z,43.17
2023-04-10T12:32:27.833Z,42.50
2023-04-10T12:35:01.589Z,42.43
2023-04-10T12:37:51.436Z,41.40
2023-04-10T12:40:20.955Z,41.52
2023-04-10T12:42:48.714Z,40.74
2023-04-10T12:45:16.803Z,47.28
2023-04-10T12:47:55.644Z,43.60
2023-04-10T12:50:23.839Z,41.42
2023-04-10T12:53:14.138Z,43.26
2023-04-10T12:55:56.682Z,41.40
2023-04-10T12:58:28.517Z,38.33
2023-04-10T13:00:56.864Z,36.28
2023-04-10T13:03:26.088Z,34.10
2023-04-10T13:05:54.491Z,39.18
2023-04-10T13:08:23.502Z,35.98
2023-04-10T13:10:51.875Z,36.36
2023-04-10T13:13:19.790Z,36.49
2023-04-10T13:15:48.174Z,36.41
2023-04-10T13:18:16.617Z,36.36
2023-04-10T13:20:47.204Z,37.76
2023-04-10T13:23:15.126Z,37.57
2023-04-10T13:25:43.477Z,37.79
2023-04-10T13:28:16.174Z,37.48
2023-04-10T13:30:44.334Z,38.54
2023-04-10T13:33:12.132Z,39.17
2023-04-10T13:35:43.069Z,39.00
2023-04-10T13:38:12.037Z,38.46
2023-04-10T13:40:39.840Z,38.84
2023-04-10T13:43:07.757Z,39.78
2023-04-10T13:45:36.245Z,40.33
2023-04-10T13:48:04.384Z,41.28
2023-04-10T13:50:32.523Z,39.85
2023-04-10T13:53:03.807Z,40.12
2023-04-10T13:55:31.645Z,41.41
2023-04-10T13:57:59.478Z,41.64
2023-04-10T14:00:28.087Z,44.76
2023-04-10T14:02:56.523Z,47.76
2023-04-10T14:05:24.486Z,49.69
2023-04-10T14:07:57.697Z,51.03
2023-04-10T14:10:25.753Z,51.19
2023-04-10T14:12:53.589Z,51.12
2023-04-10T14:15:21.488Z,51.63
2023-04-10T14:17:49.702Z,52.31
2023-04-10T14:20:17.533Z,52.50
2023-04-10T14:22:45.226Z,52.62
2023-04-10T14:25:16.280Z,52.53
2023-04-10T14:27:44.132Z,52.52
2023-04-10T14:30:12.270Z,52.25
2023-04-10T14:32:40.545Z,52.41
2023-04-10T14:35:08.991Z,52.88
2023-04-10T14:37:37.057Z,53.75
2023-04-10T14:40:05.926Z,55.11
2023-04-10T14:42:33.720Z,56.40
2023-04-10T14:45:01.504Z,56.72
2023-04-10T14:47:31.233Z,57.28
2023-04-10T14:49:59.172Z,58.10
2023-04-10T14:52:26.923Z,57.58
2023-04-10T14:54:55.122Z,57.45
2023-04-10T14:57:23.071Z,57.02
2023-04-10T14:59:50.977Z,56.68
2023-04-10T15:02:19.158Z,55.06
2023-04-10T15:04:46.947Z,56.28
2023-04-10T15:07:15.023Z,56.24
2023-04-10T15:09:44.874Z,57.16
2023-04-10T15:12:12.928Z,58.39
2023-04-10T15:14:40.641Z,58.53
2023-04-10T15:17:09.026Z,58.06
2023-04-10T15:19:36.732Z,56.93
2023-04-10T15:22:04.523Z,54.68
2023-04-10T15:24:43.329Z,53.49
2023-04-10T15:27:19.125Z,51.96
2023-04-10T15:29:47.476Z,50.90
2023-04-10T15:32:15.348Z,49.51
2023-04-10T15:34:43.153Z,53.34
2023-04-10T15:37:11.991Z,50.18
2023-04-10T15:39:39.743Z,48.11
2023-04-10T15:42:08.565Z,45.77
2023-04-10T15:44:36.781Z,46.09
2023-04-10T15:47:04.835Z,47.52
2023-04-10T15:49:37.814Z,47.68
2023-04-10T15:52:07.493Z,49.93
2023-04-10T15:54:35.587Z,55.29
2023-04-10T15:57:03.994Z,59.00
2023-04-10T15:59:33.970Z,58.24
2023-04-10T16:02:02.103Z,58.95
2023-04-10T16:04:31.394Z,59.05
2023-04-10T16:06:59.455Z,60.15
2023-04-10T16:09:27.591Z,59.14
2023-04-10T16:11:56.462Z,59.04
2023-04-10T16:14:24.423Z,60.00
2023-04-10T16:16:52.392Z,58.92
2023-04-10T16:19:21.163Z,58.82
2023-04-10T16:21:49.098Z,57.84
2023-04-10T16:24:17.158Z,56.32
2023-04-10T16:26:45.269Z,58.70
2023-04-10T16:29:13.270Z,59.00
2023-04-10T16:31:41.145Z,55.04
2023-04-10T16:34:09.451Z,57.23
2023-04-10T16:36:37.812Z,60.22
2023-04-10T16:39:06.094Z,62.04
2023-04-10T16:41:46.418Z,63.41
2023-04-10T16:44:14.282Z,64.17
2023-04-10T16:46:54.916Z,65.69
2023-04-10T16:49:22.896Z,65.83
2023-04-10T16:51:51.423Z,64.22
2023-04-10T16:54:19.311Z,64.12
2023-04-10T16:56:47.147Z,63.66
2023-04-10T16:59:15.583Z,65.63
2023-04-10T17:01:43.439Z,66.37
2023-04-10T17:04:11.967Z,67.42
2023-04-10T17:06:40.387Z,66.90
2023-04-10T17:09:08.162Z,67.84
2023-04-10T17:11:48.401Z,67.58
2023-04-10T17:14:16.513Z,68.01
2023-04-10T17:16:44.489Z,68.45
2023-04-10T17:19:13.026Z,68.46
2023-04-10T17:21:41.137Z,69.59
2023-04-10T17:24:09.168Z,69.49
2023-04-10T17:26:50.254Z,70.54
2023-04-10T17:29:20.460Z,68.74
2023-04-10T17:31:48.911Z,66.40
2023-04-10T17:34:16.820Z,65.71
2023-04-10T17:36:44.617Z,66.90
2023-04-10T17:39:12.836Z,62.57
2023-04-10T17:41:41.097Z,64.61
2023-04-10T17:44:08.883Z,63.43
2023-04-10T17:46:39.288Z,66.00
2023-04-10T17:49:07.277Z,64.83
2023-04-10T17:51:35.095Z,61.59
2023-04-10T17:54:03.508Z,59.63
2023-04-10T17:56:32.044Z,61.23
2023-04-10T17:59:00.848Z,61.59
2023-04-10T18:01:32.024Z,57.52
2023-04-10T18:04:03.072Z,58.89
2023-04-10T18:06:31.968Z,57.41
2023-04-10T18:09:00.253Z,57.61
2023-04-10T18:11:28.799Z,56.54
2023-04-10T18:13:56.623Z,59.54
2023-04-10T18:16:24.937Z,56.22
2023-04-10T18:18:52.988Z,57.40
2023-04-10T18:21:21.576Z,60.06
2023-04-10T18:23:49.816Z,59.05
2023-04-10T18:26:21.737Z,59.12
2023-04-10T18:28:49.854Z,58.76
2023-04-10T18:31:19.391Z,60.65
2023-04-10T18:33:53.366Z,67.87
2023-04-10T18:36:32.541Z,71.57
2023-04-10T18:39:00.484Z,73.74
2023-04-10T18:41:28.490Z,74.26
2023-04-10T18:44:04.828Z,75.60
2023-04-10T18:46:34.430Z,76.25
2023-04-10T18:49:03.671Z,75.52
2023-04-10T18:51:34.943Z,76.70
2023-04-10T18:54:04.351Z,76.94
2023-04-10T18:56:32.962Z,78.48
2023-04-10T18:59:00.965Z,78.02
2023-04-10T19:01:29.337Z,74.71
2023-04-10T19:03:57.624Z,73.67
2023-04-10T19:06:27.288Z,73.19
2023-04-10T19:08:56.129Z,72.87
2023-04-10T19:11:23.885Z,72.56
2023-04-10T19:13:51.622Z,74.80
2023-04-10T19:16:20.812Z,75.65
2023-04-10T19:18:49.084Z,73.94
2023-04-10T19:21:16.982Z,74.65
2023-04-10T19:23:45.665Z,72.01
2023-04-10T19:26:13.549Z,71.80
2023-04-10T19:28:41.259Z,71.25
2023-04-10T19:31:09.648Z,71.64
2023-04-10T19:33:37.484Z,71.87
2023-04-10T19:36:08.036Z,73.28
2023-04-10T19:38:36.792Z,76.25
2023-04-10T19:41:14.486Z,79.16
2023-04-10T19:43:42.711Z,80.14
2023-04-10T19:46:21.321Z,80.95
2023-04-10T19:48:49.605Z,78.39
2023-04-10T19:51:17.595Z,78.44
2023-04-10T19:53:45.614Z,78.31
2023-04-10T19:56:13.824Z,75.97
2023-04-10T19:58:42.571Z,73.01
2023-04-10T20:01:12.685Z,72.35
2023-04-10T20:03:41.054Z,70.77
2023-04-10T20:06:09.220Z,72.07
2023-04-10T20:08:37.377Z,72.77
2023-04-10T20:11:06.908Z,73.38
2023-04-10T20:13:35.149Z,74.76
2023-04-10T20:16:03.226Z,72.45
2023-04-10T20:18:32.494Z,72.37
2023-04-10T20:21:00.388Z,69.43
2023-04-10T20:23:28.254Z,70.44
2023-04-10T20:25:56.494Z,73.23
2023-04-10T20:28:24.256Z,78.04
2023-04-10T20:30:57.074Z,78.97
2023-04-10T20:33:25.251Z,78.62
2023-04-10T20:35:53.230Z,78.33
2023-04-10T20:38:21.052Z,79.52
2023-04-10T20:40:49.154Z,75.91
2023-04-10T20:43:18.963Z,77.28
2023-04-10T20:45:46.834Z,75.10
2023-04-10T20:48:14.927Z,79.40
2023-04-10T20:50:45.653Z,79.59
2023-04-10T20:53:13.684Z,79.62
2023-04-10T20:55:42.214Z,79.43
2023-04-10T20:58:10.071Z,76.61
2023-04-10T21:00:39.924Z,78.23
2023-04-10T21:03:08.513Z,78.92
2023-04-10T21:05:41.208Z,78.52
2023-04-10T21:08:09.765Z,81.27
2023-04-10T21:10:44.245Z,80.24
2023-04-10T21:13:15.970Z,80.10
2023-04-10T21:15:43.842Z,81.81
2023-04-10T21:18:12.605Z,80.96
2023-04-10T21:20:40.266Z,80.66
2023-04-10T21:23:08.034Z,78.95
2023-04-10T21:25:36.793Z,79.87
2023-04-10T21:28:04.838Z,79.56
2023-04-10T21:30:32.631Z,79.75
2023-04-10T21:33:00.936Z,78.41
2023-04-10T21:35:28.862Z,77.82
2023-04-10T21:38:01.348Z,77.69
2023-04-10T21:40:34.892Z,77.66
2023-04-10T21:43:03.530Z,76.55
2023-04-10T21:45:34.811Z,75.96
2023-04-10T21:48:02.937Z,75.69
2023-04-10T21:50:31.338Z,75.72
2023-04-10T21:53:00.423Z,75.84
2023-04-10T21:55:28.380Z,76.47
2023-04-10T21:57:57.178Z,76.38
2023-04-10T22:00:25.173Z,76.71
2023-04-10T22:02:53.698Z,76.60
2023-04-10T22:05:22.813Z,76.87
2023-04-10T22:07:50.946Z,77.06
2023-04-10T22:10:19.255Z,77.76
2023-04-10T22:12:49.007Z,78.60
2023-04-10T22:15:17.726Z,78.77
2023-04-10T22:17:46.601Z,78.57
2023-04-10T22:20:14.430Z,78.55
2023-04-10T22:22:42.164Z,78.67
2023-04-10T22:25:10.632Z,78.27
2023-04-10T22:27:38.476Z,78.81
2023-04-10T22:30:07.254Z,78.35
2023-04-10T22:32:35.633Z,77.75
2023-04-10T22:35:03.671Z,77.98
2023-04-10T22:37:31.552Z,78.75
2023-04-10T22:40:02.413Z,78.87
2023-04-10T22:42:32.024Z,78.70
2023-04-10T22:45:00.316Z,78.88
2023-04-10T22:47:28.108Z,78.93
2023-04-10T22:49:56.047Z,78.59
2023-04-10T22:52:24.287Z,79.78
2023-04-10T22:54:52.139Z,79.35
2023-04-10T22:57:20.052Z,79.08
2023-04-10T22:59:48.288Z,79.09
2023-04-10T23:02:16.241Z,78.98
2023-04-10T23:04:44.268Z,78.76
2023-04-10T23:07:12.499Z,78.72
2023-04-10T23:09:40.338Z,78.50
2023-04-10T23:12:08.333Z,78.19
2023-04-10T23:14:36.801Z,78.15
2023-04-10T23:17:04.628Z,78.76
2023-04-10T23:19:32.448Z,79.30
2023-04-10T23:22:00.463Z,79.07
2023-04-10T23:24:28.275Z,79.85
2023-04-10T23:26:56.014Z,79.40
2023-04-10T23:29:24.221Z,78.96
2023-04-10T23:31:52.130Z,78.45
2023-04-10T23:34:21.368Z,72.09
2023-04-10T23:36:49.537Z,68.54
2023-04-10T23:39:17.373Z,68.41
2023-04-10T23:41:45.347Z,69.15
2023-04-10T23:44:13.619Z,69.15
2023-04-10T23:46:41.638Z,66.41
2023-04-10T23:49:09.584Z,62.16
2023-04-10T23:51:37.859Z,66.95
2023-04-10T23:54:06.700Z,73.63
2023-04-10T23:56:34.452Z,78.92
2023-04-10T23:59:02.690Z,81.45
